Kezdőlap
METAR-TAF:

METAR-TAF

Repülőterek :

Tarawa, Kiribati

földrajzi szélesség: 01-21N, földrajzi hosszúság: 172-55E, magasság: 2 m

Jelenlegi meteorológiai megfigyelések

A jelentés 29 perccel ezelõtt készült, 21:00 UTC
Keleti szél 9 kt
Hőmérséklet 30°C
Páratartalom 75%
Légköri nyomás 1009 hPa
Látótávolság 10 km, vagy több
Szórványos felhőzet 2000 lábon

METAR: NGTA 212100Z 09009KT 9999 SCT020 30/25 Q1009

Idő: 11:29 (21:29 UTC)

Előrejelzés

A jelentés 4 órával és 27 perccel ezelõtt készült, 17:02 UTC
Az előrejelzés 21-én 18 óra UTC és 22-én 18 óra UTC között érvényes
Keleti szél 11 kt
Látótávolság 10 km, vagy több
Kevés felhő 1800 lábon
Szórványos felhőzet 4500 lábon
Valószínűség 30% :
22-én 00 óra UTC és 22-én 06 óra UTC között ideiglenes
Látótávolság: 5000 m
Kevés felhő 1800 lábon, Cumulonimbus.
zivatar, esõ

TAF: NGTA 211702Z 2118/2218 09011KT 9999 FEW018 SCT045 PROB30 TEMPO 2200/2206 5000 TSRA FEW018CB

Meteorológiai megfigyelések és előrejelzések több, mint 4000 repülőtéren (METAR és TAF jelentéseket).

A térképen piros és sárga pontok jelzik az elérhető meteorológiai állomásokat.

Mozgassa az egeret a pont fölött, hogy megjelenjen az állomás neve.

Azután kattintson az időjárási megfigyelések és előrejelzések megtekintéséhez.

A térkép megváltoztatása: kattintson a fekete keresztel jelölt zöld gombra ráközelítéshez, a vonallal jelölt zöld gombra távolításhoz, vagy a zöld nyilakra a szomszédos térképek eléréséhez.


METAR-TAF: